Terminal Aerodrome Forecast
Issued by NWS

Home | Current Version | Previous Version | Text Only | Print | Product List | Glossary On
Versions: 1 2 3 4 5 6 7 8 9 10 11 12 13 14
825
FTUS46 KLOX 111724
TAFWJF
TAF
KWJF 111724Z 1118/1218 06005KT P6SM SKC
     FM120000 25007KT P6SM SCT250
     FM120500 VRB03KT P6SM SCT250=

USA.gov is the U.S. government's official web portal to all federal, state and local government web resources and services.